Atlanta, MI

12:59 PM EDT on August 28, 2016 (GMT -0400)
Moon Lk | | Change Station

Elev 1240 ft 44.84 °N, 84.26 °W | Updated 19 minutes ago

Overcast
Overcast
71.3 °F
Feels Like 72 °F
N
0.0
Wind Variable Wind from SE
Gusts 0.0 mph

Today
High -- | Low -- °F
--% Chance of Precip.
Yesterday
High -- | Low -- °F
Precip. -- in
Pressure 30.20 in
Visibility 10.0 miles
Clouds Scattered Clouds 2500 ft
Overcast 3300 ft
Heat Index 72 °F
Dew Point 64 °F
Humidity 79%
Rainfall 0.00 in
Snow Depth Not available.
6:54 AM 8:19 PM
Waning Crescent, 14% visible
METAR KGLR 281653Z AUTO 28008KT 10SM SCT025 OVC033 22/15 A3022 RMK AO2 SLP227 T02220150
Pressure 30.20 in
Visibility 10.0 miles
Clouds Scattered Clouds 2500 ft
Overcast 3300 ft
Heat Index 72 °F
Dew Point 64 °F
Humidity 79%
Rainfall 0.00 in
Snow Depth Not available.
6:54 AM 8:19 PM
Waning Crescent, 14% visible
METAR KGLR 281653Z AUTO 28008KT 10SM SCT025 OVC033 22/15 A3022 RMK AO2 SLP227 T02220150

10-Day Weather Forecast

Almanac

Astronomy

Aug. 28, 2016 Rise Set
Actual Time
Civil Twilight
Nautical Twilight
Astronomical Twilight
Moon
Length of Visible Light
Length of Day
Tomorrow will be .
, % of the Moon is Illuminated

Today's Extremes

State Highs State Lows

Community

WunderPhotos

Upload Photos

1,935,627 photos uploaded!

WunderBlog® & News

Nearby

Air Quality

  Air Quality AQ Index Pollutant
Not available.

Snow Depth

Station Depth Elevation

Earthquake Activity

City Distance Mag. Time & Date
Minimum magnitude displayed is 2.5.

Coastal Water Temperatures

Place Temperature

Stations

Nearby Weather Stations

Station Location Temp. Windchill Dew Point Humidity Wind Precip. Elev Updated Type
                   

Watches & Warnings

There are currently no watches in effect.